createdAt,value
2022-12-18T00:00:14.571Z,99688.81
2022-12-18T00:03:02.843Z,99685.41
2022-12-18T00:05:52.520Z,99684.53
2022-12-18T00:08:40.729Z,99688.78
2022-12-18T00:11:31.986Z,99675.09
2022-12-18T00:14:20.151Z,99679.38
2022-12-18T00:17:07.859Z,99677.66
2022-12-18T00:19:56.905Z,99673.34
2022-12-18T00:22:46.254Z,99672.50
2022-12-18T00:25:36.490Z,99678.50
2022-12-18T00:28:24.266Z,99682.75
2022-12-18T00:31:14.174Z,99680.19
2022-12-18T00:34:02.493Z,99678.44
2022-12-18T00:36:51.037Z,99676.72
2022-12-18T00:39:40.059Z,99677.56
2022-12-18T00:42:45.670Z,99680.97
2022-12-18T00:45:34.040Z,99690.34
2022-12-18T00:48:22.511Z,99677.50
2022-12-18T00:51:10.499Z,99663.84
2022-12-18T00:53:58.278Z,99662.94
2022-12-18T00:56:49.612Z,99659.50
2022-12-18T00:59:40.096Z,99668.03
2022-12-18T01:02:28.147Z,99673.16
2022-12-18T01:05:17.589Z,99690.25
2022-12-18T01:08:05.759Z,99698.78
2022-12-18T01:10:53.749Z,99693.63
2022-12-18T01:13:42.997Z,99703.06
2022-12-18T01:16:31.001Z,99710.72
2022-12-18T01:19:18.967Z,99708.97
2022-12-18T01:22:06.942Z,99702.13
2022-12-18T01:24:55.019Z,99712.34
2022-12-18T01:27:43.020Z,99708.06
2022-12-18T01:30:32.319Z,99720.88
2022-12-18T01:33:20.090Z,99708.91
2022-12-18T01:36:08.705Z,99717.41
2022-12-18T01:38:59.306Z,99718.25
2022-12-18T01:42:06.367Z,99716.53
2022-12-18T01:45:05.223Z,99721.69
2022-12-18T01:47:58.824Z,99731.91
2022-12-18T01:50:46.903Z,99733.56
2022-12-18T01:53:35.191Z,99736.09
2022-12-18T01:56:24.413Z,99735.25
2022-12-18T01:59:13.338Z,99725.78
2022-12-18T02:02:01.528Z,99724.06
2022-12-18T02:04:51.363Z,99731.72
2022-12-18T02:07:49.089Z,99744.53
2022-12-18T02:10:43.622Z,99742.84
2022-12-18T02:13:43.008Z,99743.63
2022-12-18T02:16:41.549Z,99729.94
2022-12-18T02:20:00.634Z,99737.59
2022-12-18T02:23:06.655Z,99740.19
2022-12-18T02:26:08.711Z,99727.31
2022-12-18T02:29:00.959Z,99721.31
2022-12-18T02:31:54.574Z,99725.50
2022-12-18T02:34:44.686Z,99732.31
2022-12-18T02:37:36.445Z,99739.16
2022-12-18T02:40:26.664Z,99741.72
2022-12-18T02:43:17.732Z,99742.56
2022-12-18T02:46:28.000Z,99759.63
2022-12-18T02:49:32.775Z,99765.59
2022-12-18T02:52:33.183Z,99762.22
2022-12-18T02:55:34.282Z,99758.84
2022-12-18T02:58:32.726Z,99763.22
2022-12-18T03:01:27.490Z,99749.69
2022-12-18T03:04:22.273Z,99745.47
2022-12-18T03:07:17.640Z,99745.53
2022-12-18T03:10:08.506Z,99745.59
2022-12-18T03:13:05.990Z,99729.44
2022-12-18T03:15:58.640Z,99733.00
2022-12-18T03:18:50.036Z,99734.84
2022-12-18T03:21:42.502Z,99755.44
2022-12-18T03:24:33.589Z,99752.94
2022-12-18T03:27:26.017Z,99752.13
2022-12-18T03:30:16.679Z,99759.94
2022-12-18T03:33:11.285Z,99750.56
2022-12-18T03:35:59.783Z,99757.34
2022-12-18T03:38:47.756Z,99768.50
2022-12-18T03:41:47.431Z,99777.09
2022-12-18T03:44:44.866Z,99769.41
2022-12-18T03:47:40.656Z,99760.88
2022-12-18T03:50:38.654Z,99774.56
2022-12-18T03:53:34.847Z,99766.88
2022-12-18T03:56:28.743Z,99767.78
2022-12-18T03:59:19.250Z,99768.75
2022-12-18T04:02:09.224Z,99771.28
2022-12-18T04:05:01.132Z,99779.88
2022-12-18T04:07:52.186Z,99774.72
2022-12-18T04:10:40.032Z,99775.59
2022-12-18T04:13:33.904Z,99779.06
2022-12-18T04:16:21.919Z,99780.81
2022-12-18T04:19:09.920Z,99781.72
2022-12-18T04:21:58.169Z,99791.16
2022-12-18T04:24:47.709Z,99779.19
2022-12-18T04:27:35.902Z,99779.13
2022-12-18T04:30:24.036Z,99782.59
2022-12-18T04:33:13.669Z,99783.47
2022-12-18T04:36:01.598Z,99785.19
2022-12-18T04:38:49.655Z,99786.91
2022-12-18T04:41:38.853Z,99795.53
2022-12-18T04:44:26.774Z,99793.78
2022-12-18T04:47:14.558Z,99788.66
2022-12-18T04:50:02.419Z,99785.25
2022-12-18T04:52:50.411Z,99774.13
2022-12-18T04:55:38.370Z,99773.28
2022-12-18T04:58:28.507Z,99769.84
2022-12-18T05:01:18.761Z,99778.41
2022-12-18T05:04:07.084Z,99780.16
2022-12-18T05:06:54.904Z,99781.88
2022-12-18T05:09:42.832Z,99766.44
2022-12-18T05:12:30.780Z,99761.28
2022-12-18T05:15:20.386Z,99776.69
2022-12-18T05:18:08.469Z,99778.44
2022-12-18T05:20:56.649Z,99778.44
2022-12-18T05:23:44.517Z,99792.13
2022-12-18T05:26:33.308Z,99780.13
2022-12-18T05:29:21.471Z,99786.97
2022-12-18T05:32:10.904Z,99790.38
2022-12-18T05:34:58.794Z,99786.94
2022-12-18T05:37:46.833Z,99780.91
2022-12-18T05:40:34.860Z,99782.63
2022-12-18T05:43:23.882Z,99784.31
2022-12-18T05:46:16.943Z,99787.75
2022-12-18T05:49:06.353Z,99786.88
2022-12-18T05:51:54.392Z,99797.19
2022-12-18T05:54:42.105Z,99798.03
2022-12-18T05:57:30.488Z,99794.59
2022-12-18T06:00:19.026Z,99795.47
2022-12-18T06:03:07.154Z,99793.72
2022-12-18T06:05:56.236Z,99789.38
2022-12-18T06:08:46.495Z,99803.09
2022-12-18T06:11:36.554Z,99815.13
2022-12-18T06:14:24.503Z,99802.25
2022-12-18T06:17:12.641Z,99809.06
2022-12-18T06:20:00.354Z,99810.75
2022-12-18T06:22:53.001Z,99795.25
2022-12-18T06:25:41.338Z,99803.00
2022-12-18T06:28:29.010Z,99800.41
2022-12-18T06:31:17.026Z,99796.94
2022-12-18T06:34:05.588Z,99802.06
2022-12-18T06:36:53.522Z,99811.47
2022-12-18T06:39:43.050Z,99817.50
2022-12-18T06:42:31.867Z,99817.47
2022-12-18T06:45:19.967Z,99822.63
2022-12-18T06:48:08.168Z,99818.28
2022-12-18T06:50:56.111Z,99815.69
2022-12-18T06:53:44.188Z,99820.81
2022-12-18T06:56:33.818Z,99825.09
2022-12-18T06:59:21.906Z,99831.09
2022-12-18T07:02:12.811Z,99830.16
2022-12-18T07:05:03.680Z,99833.63
2022-12-18T07:07:53.814Z,99833.56
2022-12-18T07:10:47.522Z,99824.06
2022-12-18T07:13:38.820Z,99818.88
2022-12-18T07:16:29.326Z,99807.66
2022-12-18T07:19:17.225Z,99803.31
2022-12-18T07:22:05.579Z,99812.78
2022-12-18T07:24:54.384Z,99811.00
2022-12-18T07:27:45.084Z,99810.09
2022-12-18T07:30:34.943Z,99813.53
2022-12-18T07:33:22.880Z,99827.25
2022-12-18T07:36:12.915Z,99827.22
2022-12-18T07:39:00.822Z,99824.59
2022-12-18T07:42:08.885Z,99833.19
2022-12-18T07:44:56.795Z,99838.31
2022-12-18T07:47:46.179Z,99845.19
2022-12-18T07:50:34.542Z,99851.19
2022-12-18T07:53:22.821Z,99858.06
2022-12-18T07:56:29.992Z,99855.44
2022-12-18T07:59:19.114Z,99860.44
2022-12-18T08:02:09.236Z,99859.56
2022-12-18T08:04:59.807Z,99862.09
2022-12-18T08:07:47.826Z,99859.41
2022-12-18T08:10:35.943Z,99864.50
2022-12-18T08:13:24.602Z,99857.56
2022-12-18T08:16:12.458Z,99860.88
2022-12-18T08:19:00.603Z,99859.06
2022-12-18T08:21:53.268Z,99865.84
2022-12-18T08:24:41.015Z,99870.13
2022-12-18T08:27:30.844Z,99857.03
2022-12-18T08:30:19.358Z,99860.50
2022-12-18T08:33:07.619Z,99854.31
2022-12-18T08:35:55.572Z,99855.16
2022-12-18T08:38:47.889Z,99862.78
2022-12-18T08:41:35.851Z,99857.59
2022-12-18T08:44:40.955Z,99863.47
2022-12-18T08:47:28.689Z,99861.66
2022-12-18T08:50:16.536Z,99871.91
2022-12-18T08:53:05.716Z,99862.38
2022-12-18T08:55:55.527Z,99857.00
2022-12-18T08:58:43.608Z,99852.63
2022-12-18T09:01:32.007Z,99848.22
2022-12-18T09:04:20.022Z,99846.44
2022-12-18T09:07:07.825Z,99848.84
2022-12-18T09:09:56.280Z,99851.41
2022-12-18T09:12:45.965Z,99852.13
2022-12-18T09:15:33.915Z,99848.66
2022-12-18T09:18:23.691Z,99829.44
2022-12-18T09:21:12.821Z,99844.00
2022-12-18T09:24:00.732Z,99846.47
2022-12-18T09:26:49.391Z,99842.09
2022-12-18T09:29:39.980Z,99840.22
2022-12-18T09:32:28.181Z,99840.09
2022-12-18T09:35:16.458Z,99833.91
2022-12-18T09:38:04.767Z,99840.78
2022-12-18T09:40:55.948Z,99821.63
2022-12-18T09:43:48.200Z,99820.59
2022-12-18T09:46:42.833Z,99821.22
2022-12-18T09:49:34.768Z,99808.09
2022-12-18T09:52:28.388Z,99815.66
2022-12-18T09:55:24.182Z,99819.09
2022-12-18T09:58:21.204Z,99817.25
2022-12-18T10:01:15.308Z,99814.53
2022-12-18T10:04:04.731Z,99818.63
2022-12-18T10:07:05.652Z,99814.34
2022-12-18T10:10:04.293Z,99806.22
2022-12-18T10:13:05.407Z,99801.63
2022-12-18T10:16:11.405Z,99789.34
2022-12-18T10:19:17.005Z,99785.56
2022-12-18T10:22:16.724Z,99785.94
2022-12-18T10:25:14.792Z,99787.97
2022-12-18T10:28:12.051Z,99782.06
2022-12-18T10:31:00.946Z,99770.06
2022-12-18T10:33:49.127Z,99785.91
2022-12-18T10:36:39.270Z,99771.75
2022-12-18T10:39:28.181Z,99768.41
2022-12-18T10:42:20.869Z,99775.94
2022-12-18T10:45:13.391Z,99777.25
2022-12-18T10:48:02.771Z,99779.34
2022-12-18T10:54:04.427Z,99777.56
2022-12-18T10:56:55.866Z,99777.44
2022-12-18T10:59:55.714Z,99779.81
2022-12-18T11:02:43.888Z,99781.16
2022-12-18T11:05:34.071Z,99781.50
2022-12-18T11:08:24.701Z,99789.41
2022-12-18T11:11:23.782Z,99770.53
2022-12-18T11:14:20.106Z,99760.13
2022-12-18T11:17:27.311Z,99748.47
2022-12-18T11:20:25.923Z,99754.75
2022-12-18T11:23:15.464Z,99747.50
2022-12-18T11:26:05.282Z,99745.63
2022-12-18T11:29:09.679Z,99748.41
2022-12-18T11:32:26.443Z,99751.19
2022-12-18T11:35:21.773Z,99740.66
2022-12-18T11:38:21.070Z,99741.91
2022-12-18T11:41:17.325Z,99735.63
2022-12-18T11:44:12.619Z,99718.19
2022-12-18T11:47:08.500Z,99720.38
2022-12-18T11:50:04.378Z,99728.81
2022-12-18T11:52:58.181Z,99723.25
2022-12-18T11:56:05.791Z,99716.78
2022-12-18T11:59:03.158Z,99707.75
2022-12-18T12:01:57.957Z,99716.22
2022-12-18T12:05:06.139Z,99717.84
2022-12-18T12:08:01.904Z,99715.63
2022-12-18T12:11:01.227Z,99713.13
2022-12-18T12:14:01.890Z,99716.91
2022-12-18T12:16:59.145Z,99713.91
2022-12-18T12:19:56.000Z,99695.44
2022-12-18T12:22:54.528Z,99703.66
2022-12-18T12:25:48.949Z,99692.84
2022-12-18T12:28:57.098Z,99696.53
2022-12-18T12:32:07.691Z,99694.94
2022-12-18T12:35:11.635Z,99696.00
2022-12-18T12:38:10.273Z,99695.59
2022-12-18T12:41:04.113Z,99684.28
2022-12-18T12:43:51.890Z,99689.16
2022-12-18T12:46:43.793Z,99684.72
2022-12-18T12:49:40.651Z,99687.03
2022-12-18T12:52:33.343Z,99687.78
2022-12-18T12:55:26.122Z,99676.34
2022-12-18T12:58:23.107Z,99667.53
2022-12-18T13:01:23.318Z,99670.97
2022-12-18T13:04:23.956Z,99680.84
2022-12-18T13:07:22.387Z,99679.81
2022-12-18T13:10:30.200Z,99677.06
2022-12-18T13:13:23.656Z,99672.69
2022-12-18T13:16:12.330Z,99662.72
2022-12-18T13:19:00.892Z,99667.78
2022-12-18T13:21:56.847Z,99653.84
2022-12-18T13:24:45.875Z,99650.41
2022-12-18T13:28:01.752Z,99647.84
2022-12-18T13:30:57.197Z,99657.59
2022-12-18T13:34:24.001Z,99659.59
2022-12-18T13:37:00.521Z,99662.34
2022-12-18T13:39:49.859Z,99671.19
2022-12-18T13:43:01.477Z,99664.53
2022-12-18T13:46:00.473Z,99668.44
2022-12-18T13:48:58.334Z,99664.50
2022-12-18T13:51:49.374Z,99658.78
2022-12-18T13:54:46.850Z,99647.91
2022-12-18T13:57:39.377Z,99648.84
2022-12-18T14:00:30.175Z,99637.69
2022-12-18T14:03:22.647Z,99632.22
2022-12-18T14:06:14.079Z,99634.72
2022-12-18T14:09:04.490Z,99636.34
2022-12-18T14:12:17.257Z,99639.31
2022-12-18T14:15:17.204Z,99636.41
2022-12-18T14:18:17.288Z,99634.25
2022-12-18T14:21:06.984Z,99634.50
2022-12-18T14:24:15.609Z,99647.63
2022-12-18T14:27:25.777Z,99653.81
2022-12-18T14:30:31.863Z,99658.25
2022-12-18T14:33:22.455Z,99662.41
2022-12-18T14:36:18.947Z,99665.97
2022-12-18T14:39:07.034Z,99659.19
2022-12-18T14:41:55.106Z,99671.63
2022-12-18T14:44:57.648Z,99666.78
2022-12-18T14:47:52.883Z,99668.47
2022-12-18T14:50:41.143Z,99666.13
2022-12-18T14:53:35.951Z,99667.19
2022-12-18T14:56:26.707Z,99661.31
2022-12-18T14:59:23.802Z,99654.97
2022-12-18T15:02:22.185Z,99650.88
2022-12-18T15:05:20.927Z,99658.91
2022-12-18T15:08:30.356Z,99668.72
2022-12-18T15:11:37.388Z,99672.84
2022-12-18T15:14:37.115Z,99673.53
2022-12-18T15:17:29.186Z,99680.13
2022-12-18T15:20:18.241Z,99681.97
2022-12-18T15:23:06.062Z,99668.53
2022-12-18T15:26:01.797Z,99666.47
2022-12-18T15:28:51.806Z,99663.53
2022-12-18T15:31:39.965Z,99668.97
2022-12-18T15:34:28.778Z,99670.09
2022-12-18T15:37:18.012Z,99682.34
2022-12-18T15:40:06.948Z,99673.28
2022-12-18T15:43:14.690Z,99682.91
2022-12-18T15:46:03.523Z,99674.69
2022-12-18T15:48:56.696Z,99673.94
2022-12-18T15:51:53.599Z,99674.19
2022-12-18T15:55:00.534Z,99682.34
2022-12-18T15:57:48.404Z,99691.91
2022-12-18T16:00:38.483Z,99680.66
2022-12-18T16:03:26.777Z,99673.81
2022-12-18T16:06:14.432Z,99673.69
2022-12-18T16:09:02.493Z,99670.53
2022-12-18T16:11:51.643Z,99681.06
2022-12-18T16:14:39.387Z,99677.38
2022-12-18T16:17:27.404Z,99677.69
2022-12-18T16:20:17.034Z,99678.78
2022-12-18T16:23:04.779Z,99677.97
2022-12-18T16:25:52.883Z,99677.31
2022-12-18T16:28:48.129Z,99676.34
2022-12-18T16:31:37.040Z,99671.97
2022-12-18T16:34:29.281Z,99660.97
2022-12-18T16:37:18.681Z,99667.06
2022-12-18T16:40:09.856Z,99668.06
2022-12-18T16:42:57.571Z,99663.00
2022-12-18T16:45:46.975Z,99670.81
2022-12-18T16:48:37.892Z,99661.28
2022-12-18T16:51:25.686Z,99673.44
2022-12-18T16:54:19.177Z,99665.75
2022-12-18T16:57:09.144Z,99666.53
2022-12-18T17:00:02.994Z,99669.97
2022-12-18T17:02:56.781Z,99666.47
2022-12-18T17:05:48.814Z,99655.19
2022-12-18T17:08:40.820Z,99650.84
2022-12-18T17:11:30.422Z,99656.09
2022-12-18T17:14:21.391Z,99651.00
2022-12-18T17:17:24.662Z,99657.06
2022-12-18T17:20:13.822Z,99657.09
2022-12-18T17:23:01.913Z,99655.47
2022-12-18T17:25:50.983Z,99653.75
2022-12-18T17:28:40.004Z,99653.81
2022-12-18T17:31:30.205Z,99657.41
2022-12-18T17:34:18.303Z,99656.59
2022-12-18T17:37:07.286Z,99654.97
2022-12-18T17:39:55.332Z,99655.69
2022-12-18T17:42:43.296Z,99649.78
2022-12-18T17:45:31.462Z,99656.63
2022-12-18T17:48:19.400Z,99654.88
2022-12-18T17:51:10.003Z,99653.16
2022-12-18T17:53:59.662Z,99648.88
2022-12-18T17:56:47.679Z,99653.22
2022-12-18T17:59:35.760Z,99655.88
2022-12-18T18:02:24.056Z,99653.28
2022-12-18T18:05:13.059Z,99641.97
2022-12-18T18:08:06.313Z,99633.38
2022-12-18T18:11:15.917Z,99642.00
2022-12-18T18:14:04.518Z,99635.06
2022-12-18T18:16:53.091Z,99635.06
2022-12-18T18:19:42.088Z,99637.59
2022-12-18T18:22:31.632Z,99634.94
2022-12-18T18:25:19.633Z,99632.22
2022-12-18T18:28:09.094Z,99638.28
2022-12-18T18:30:56.730Z,99642.63
2022-12-18T18:33:45.299Z,99639.13
2022-12-18T18:36:33.573Z,99633.88
2022-12-18T18:39:22.113Z,99636.47
2022-12-18T18:42:10.197Z,99633.03
2022-12-18T18:44:59.502Z,99628.63
2022-12-18T18:47:47.339Z,99626.88
2022-12-18T18:50:35.443Z,99616.50
2022-12-18T18:53:23.488Z,99631.19
2022-12-18T19:00:36.762Z,99611.28
2022-12-18T19:03:27.100Z,99612.13
2022-12-18T19:06:18.622Z,99617.25
2022-12-18T19:09:07.002Z,99612.09
2022-12-18T19:12:12.298Z,99606.03
2022-12-18T19:15:00.478Z,99600.88
2022-12-18T19:17:48.249Z,99606.03
2022-12-18T19:20:41.354Z,99606.03
2022-12-18T19:23:34.015Z,99597.44
2022-12-18T19:26:28.511Z,99589.56
2022-12-18T19:29:16.606Z,99590.41
2022-12-18T19:32:04.816Z,99592.09
2022-12-18T19:34:54.293Z,99585.16
2022-12-18T19:37:46.245Z,99586.00
2022-12-18T19:40:34.241Z,99591.16
2022-12-18T19:43:22.334Z,99590.31
2022-12-18T19:46:12.740Z,99586.81
2022-12-18T19:49:01.555Z,99604.13
2022-12-18T19:51:50.457Z,99594.63
2022-12-18T19:54:40.168Z,99590.31
2022-12-18T19:57:28.171Z,99581.66
2022-12-18T20:00:18.824Z,99588.53
2022-12-18T20:03:17.227Z,99584.22
2022-12-18T20:06:14.975Z,99590.31
2022-12-18T20:09:05.935Z,99590.28
2022-12-18T20:11:55.518Z,99592.91
2022-12-18T20:14:44.813Z,99596.38
2022-12-18T20:17:33.345Z,99597.22
2022-12-18T20:20:21.994Z,99586.03
2022-12-18T20:23:10.530Z,99575.69
2022-12-18T20:25:58.831Z,99579.16
2022-12-18T20:28:47.855Z,99585.19
2022-12-18T20:31:35.618Z,99586.78
2022-12-18T20:34:24.092Z,99581.53
2022-12-18T20:37:12.071Z,99591.91
2022-12-18T20:40:00.127Z,99590.13
2022-12-18T20:42:48.752Z,99586.66
2022-12-18T20:45:38.940Z,99584.84
2022-12-18T20:48:29.613Z,99585.69
2022-12-18T20:51:19.318Z,99573.56
2022-12-18T20:54:11.639Z,99577.00
2022-12-18T20:56:59.991Z,99572.56
2022-12-18T20:59:48.574Z,99560.47
2022-12-18T21:02:38.048Z,99554.31
2022-12-18T21:05:25.864Z,99554.31
2022-12-18T21:08:13.919Z,99552.50
2022-12-18T21:11:35.611Z,99537.78
2022-12-18T21:14:26.304Z,99550.69
2022-12-18T21:17:14.299Z,99549.75
2022-12-18T21:20:04.082Z,99550.72
2022-12-18T21:22:54.050Z,99555.06
2022-12-18T21:25:45.811Z,99542.13
2022-12-18T21:28:41.715Z,99548.16
2022-12-18T21:31:31.772Z,99556.00
2022-12-18T21:34:22.020Z,99544.81
2022-12-18T21:37:12.706Z,99541.34
2022-12-18T21:40:00.749Z,99535.34
2022-12-18T21:43:06.768Z,99539.72
2022-12-18T21:45:57.346Z,99537.03
2022-12-18T21:48:47.258Z,99526.69
2022-12-18T21:51:36.295Z,99523.19
2022-12-18T21:54:26.104Z,99532.66
2022-12-18T21:57:14.345Z,99538.84
2022-12-18T22:00:03.040Z,99533.59
2022-12-18T22:03:17.992Z,99543.13
2022-12-18T22:06:09.017Z,99520.63
2022-12-18T22:08:57.613Z,99526.66
2022-12-18T22:11:50.093Z,99536.13
2022-12-18T22:14:38.370Z,99523.13
2022-12-18T22:17:26.323Z,99526.50
2022-12-18T22:20:16.037Z,99522.19
2022-12-18T22:23:06.113Z,99504.78
2022-12-18T22:25:54.391Z,99532.44
2022-12-18T22:29:01.052Z,99538.50
2022-12-18T22:31:48.830Z,99524.59
2022-12-18T22:34:37.159Z,99536.69
2022-12-18T22:37:25.159Z,99538.41
2022-12-18T22:40:24.654Z,99508.03
2022-12-18T22:43:13.731Z,99530.53
2022-12-18T22:46:04.496Z,99509.78
2022-12-18T22:48:52.646Z,99526.19
2022-12-18T22:51:40.543Z,99534.84
2022-12-18T22:54:28.462Z,99538.34
2022-12-18T22:57:16.581Z,99524.44
2022-12-18T23:00:05.415Z,99512.31
2022-12-18T23:03:00.300Z,99523.53
2022-12-18T23:05:48.861Z,99515.69
2022-12-18T23:08:38.568Z,99517.38
2022-12-18T23:11:27.682Z,99510.44
2022-12-18T23:14:16.457Z,99506.91
2022-12-18T23:17:04.283Z,99520.81
2022-12-18T23:19:53.526Z,99522.50
2022-12-18T23:22:41.146Z,99532.03
2022-12-18T23:25:29.131Z,99520.81
2022-12-18T23:28:17.100Z,99515.66
2022-12-18T23:31:07.470Z,99523.44
2022-12-18T23:33:57.276Z,99530.34
2022-12-18T23:36:47.882Z,99527.75
2022-12-18T23:39:37.041Z,99524.31
2022-12-18T23:42:24.947Z,99539.00
2022-12-18T23:45:17.760Z,99532.09
2022-12-18T23:48:06.642Z,99532.09
2022-12-18T23:50:54.940Z,99513.00
2022-12-18T23:53:44.824Z,99506.16
2022-12-18T23:56:35.778Z,99504.41
2022-12-18T23:59:25.528Z,99504.44
